메인 페이지
METAR-TAF:

METAR-TAF

공항 :

Arlington Municipal Airport

알링턴, 텍사스, 미국

위도: 32-39-50N, 경도: 097-05-45W, 고도: 192m

현재 날씨관측

예보는 21분 전, 04:53시(UTC)에 발표되었습니다.
남동4kt
온도 12°C
습도 62%
기압 1021 hPa
시정: 16.1km
맑음

METAR: KGKY 220453Z AUTO 13004KT 10SM CLR 12/05 A3016 RMK AO2 SLP207 T01170050

시각: 00:14 (05:14 UTC)

예보

예보는 2 시간 19분 전, 02:55시(UTC)에 발표되었습니다.
예보 대상 시간: 22일 03시부터 22일 24시까지 (UTC)
동북동4kt
시정: 10km
고도 25000ft 상공 구름 많음
22일 1400시부터 (UTC)
남남동9kt
시정: 10km
고도 25000ft 상공 구름 많음

TAF: KGKY 220255Z 2203/2224 07004KT P6SM BKN250 FM221400 15009KT P6SM BKN250

4,000개 이상의 공항 관측 자료 및 예보 (METAR 및 TAF 보고).

지도상에서 검색 가능한 기상관측소가 노란 점과 빨간 점으로 표시되어 있습니다.

기상관측소 명을 보려면 표시 위로 마우스를 이동하세요.

날씨 관측과 예보를 보려면 클릭하세요.

지도 변경 : 확대하려면 엑스 표시가 있는 녹색 버튼, 축소하려면 빼기 표시가 있는 녹색 버튼, 다음 페이지의 지도를 보려면 녹색 화살표를 클릭하세요.


METAR-TAF: